createdAt,value
2019-05-23T00:02:53.674Z,18.50
2019-05-23T00:08:18.692Z,18.45
2019-05-23T00:14:00.295Z,18.45
2019-05-23T00:19:23.431Z,18.52
2019-05-23T00:24:47.569Z,18.37
2019-05-23T00:30:12.660Z,18.41
2019-05-23T00:35:35.032Z,18.32
2019-05-23T00:40:57.019Z,18.32
2019-05-23T00:46:19.245Z,18.37
2019-05-23T00:51:41.334Z,18.32
2019-05-23T00:57:04.132Z,18.19
2019-05-23T01:02:28.309Z,18.19
2019-05-23T01:07:50.324Z,18.00
2019-05-23T01:13:13.837Z,18.00
2019-05-23T01:18:36.765Z,18.14
2019-05-23T01:24:18.410Z,18.03
2019-05-23T01:29:50.256Z,17.77
2019-05-23T01:35:14.482Z,17.76
2019-05-23T01:40:37.115Z,17.90
2019-05-23T01:45:59.743Z,17.90
2019-05-23T01:51:42.558Z,17.95
2019-05-23T01:57:05.071Z,18.05
2019-05-23T02:02:28.827Z,18.09
2019-05-23T02:07:50.723Z,18.00
2019-05-23T02:13:12.031Z,18.18
2019-05-23T02:18:34.861Z,18.15
2019-05-23T02:23:57.115Z,17.91
2019-05-23T02:29:20.012Z,17.51
2019-05-23T02:34:43.427Z,17.33
2019-05-23T02:40:30.516Z,17.30
2019-05-23T02:45:57.192Z,17.22
2019-05-23T02:51:25.586Z,17.11
2019-05-23T02:56:47.253Z,17.14
2019-05-23T03:03:08.159Z,17.13
2019-05-23T03:08:31.812Z,17.01
2019-05-23T03:13:55.362Z,16.84
2019-05-23T03:19:28.442Z,16.75
2019-05-23T03:24:51.149Z,16.66
2019-05-23T03:30:18.761Z,16.72
2019-05-23T03:35:43.270Z,16.88
2019-05-23T03:41:05.812Z,17.09
2019-05-23T03:46:29.247Z,17.50
2019-05-23T03:51:52.249Z,17.51
2019-05-23T03:57:15.322Z,17.70
2019-05-23T04:02:39.252Z,17.93
2019-05-23T04:08:01.323Z,17.65
2019-05-23T04:13:23.312Z,17.65
2019-05-23T04:18:46.023Z,17.85
2019-05-23T04:24:07.740Z,17.94
2019-05-23T04:29:29.970Z,17.94
2019-05-23T04:34:52.185Z,18.14
2019-05-23T04:40:14.799Z,18.02
2019-05-23T04:45:36.626Z,18.02
2019-05-23T04:51:00.263Z,18.25
2019-05-23T04:56:22.476Z,18.42
2019-05-23T05:01:44.012Z,18.67
2019-05-23T05:07:05.957Z,18.86
2019-05-23T05:12:28.065Z,19.03
2019-05-23T05:17:50.167Z,19.12
2019-05-23T05:23:12.132Z,19.34
2019-05-23T05:28:33.939Z,19.63
2019-05-23T05:33:55.791Z,19.97
2019-05-23T05:39:17.581Z,20.07
2019-05-23T05:44:39.194Z,20.08
2019-05-23T05:50:02.277Z,20.10
2019-05-23T05:55:24.521Z,20.15
2019-05-23T06:01:00.630Z,20.12
2019-05-23T06:06:27.674Z,20.16
2019-05-23T06:11:51.370Z,20.20
2019-05-23T06:17:15.394Z,20.25
2019-05-23T06:22:37.593Z,20.33
2019-05-23T06:28:00.292Z,20.33
2019-05-23T06:33:24.299Z,20.27
2019-05-23T06:38:46.846Z,20.16
2019-05-23T06:44:10.129Z,20.12
2019-05-23T06:49:32.173Z,20.33
2019-05-23T06:54:54.165Z,20.60
2019-05-23T07:00:20.017Z,20.76
2019-05-23T07:05:42.561Z,21.01
2019-05-23T07:11:04.291Z,21.23
2019-05-23T07:16:25.718Z,21.38
2019-05-23T07:21:47.843Z,21.64
2019-05-23T07:27:09.789Z,21.58
2019-05-23T07:32:31.686Z,21.63
2019-05-23T07:37:53.585Z,21.67
2019-05-23T07:43:15.676Z,21.80
2019-05-23T07:48:37.434Z,21.95
2019-05-23T07:54:21.250Z,22.12
2019-05-23T07:59:45.031Z,22.11
2019-05-23T08:05:08.925Z,22.29
2019-05-23T08:10:34.146Z,22.45
2019-05-23T08:15:55.846Z,22.61
2019-05-23T08:21:18.296Z,22.73
2019-05-23T08:26:51.726Z,22.71
2019-05-23T08:32:19.120Z,22.97
2019-05-23T08:37:52.939Z,23.25
2019-05-23T08:43:14.631Z,23.48
2019-05-23T08:48:37.280Z,24.00
2019-05-23T08:53:59.180Z,24.07
2019-05-23T08:59:21.741Z,24.13
2019-05-23T09:05:02.309Z,24.10
2019-05-23T09:10:08.086Z,24.26
2019-05-23T09:15:29.997Z,24.17
2019-05-23T09:20:51.806Z,24.03
2019-05-23T09:26:13.849Z,24.08
2019-05-23T09:31:35.758Z,24.12
2019-05-23T09:37:00.282Z,24.29
2019-05-23T09:42:21.516Z,24.82
2019-05-23T09:47:43.385Z,24.74
2019-05-23T09:53:04.921Z,24.64
2019-05-23T09:58:26.619Z,24.55
2019-05-23T10:03:48.621Z,24.43
2019-05-23T10:09:10.322Z,24.89
2019-05-23T10:14:34.678Z,24.75
2019-05-23T10:19:56.874Z,24.91
2019-05-23T10:25:18.194Z,24.92
2019-05-23T10:30:39.874Z,24.94
2019-05-23T10:36:01.526Z,24.93
2019-05-23T10:41:23.603Z,24.95
2019-05-23T10:46:45.333Z,24.56
2019-05-23T10:52:07.102Z,24.70
2019-05-23T10:57:29.141Z,24.60
2019-05-23T11:02:51.929Z,24.25
2019-05-23T11:08:14.730Z,23.93
2019-05-23T11:13:40.926Z,23.37
2019-05-23T11:19:03.328Z,23.26
2019-05-23T11:24:25.459Z,23.19
2019-05-23T11:29:46.783Z,23.15
2019-05-23T11:35:08.713Z,22.78
2019-05-23T11:40:33.528Z,22.79
2019-05-23T11:45:59.175Z,22.67
2019-05-23T11:51:25.259Z,22.56
2019-05-23T11:56:45.873Z,22.46
2019-05-23T12:02:14.650Z,22.55
2019-05-23T12:07:37.720Z,22.55
2019-05-23T12:12:59.442Z,22.51
2019-05-23T12:18:22.372Z,22.53
2019-05-23T12:23:44.730Z,22.51
2019-05-23T12:29:09.358Z,22.85
2019-05-23T12:34:31.127Z,23.36
2019-05-23T12:39:53.725Z,23.67
2019-05-23T12:45:15.651Z,23.90
2019-05-23T12:50:40.888Z,24.26
2019-05-23T12:56:03.617Z,24.13
2019-05-23T13:01:26.640Z,24.36
2019-05-23T13:06:48.494Z,25.23
2019-05-23T13:12:09.997Z,25.14
2019-05-23T13:17:31.726Z,24.92
2019-05-23T13:22:53.528Z,24.98
2019-05-23T13:28:15.360Z,25.12
2019-05-23T13:33:36.580Z,25.23
2019-05-23T13:38:58.729Z,25.00
2019-05-23T13:44:33.049Z,25.18
2019-05-23T13:49:44.263Z,24.84
2019-05-23T13:55:06.173Z,24.20
2019-05-23T14:00:29.911Z,23.73
2019-05-23T14:05:51.684Z,23.46
2019-05-23T14:11:14.603Z,23.21
2019-05-23T14:16:48.666Z,22.92
2019-05-23T14:22:10.652Z,22.77
2019-05-23T14:28:00.362Z,22.64
2019-05-23T14:33:53.306Z,22.52
2019-05-23T14:39:26.224Z,22.31
2019-05-23T14:44:48.484Z,22.22
2019-05-23T14:50:23.496Z,22.15
2019-05-23T14:55:45.073Z,22.10
2019-05-23T15:01:09.342Z,22.06
2019-05-23T15:06:31.243Z,22.03
2019-05-23T15:11:53.470Z,21.97
2019-05-23T15:17:15.273Z,21.98
2019-05-23T15:22:36.891Z,21.97
2019-05-23T15:28:05.459Z,21.91
2019-05-23T15:33:27.610Z,21.74
2019-05-23T15:38:49.364Z,21.78
2019-05-23T15:44:23.883Z,21.76
2019-05-23T15:49:36.580Z,21.70
2019-05-23T15:55:05.811Z,21.61
2019-05-23T16:00:48.221Z,21.59
2019-05-23T16:06:12.992Z,21.59
2019-05-23T16:11:35.120Z,21.43
2019-05-23T16:16:57.555Z,21.38
2019-05-23T16:22:19.480Z,21.26
2019-05-23T16:27:41.206Z,21.26
2019-05-23T16:33:02.979Z,21.20
2019-05-23T16:38:25.125Z,21.13
2019-05-23T16:43:46.655Z,21.16
2019-05-23T16:49:08.543Z,21.13
2019-05-23T16:54:35.380Z,21.08
2019-05-23T17:00:15.454Z,20.98
2019-05-23T17:05:47.435Z,20.91
2019-05-23T17:11:34.083Z,20.88
2019-05-23T17:17:38.383Z,20.98
2019-05-23T17:23:01.317Z,21.16
2019-05-23T17:28:37.085Z,21.32
2019-05-23T17:33:59.100Z,21.27
2019-05-23T17:39:23.553Z,21.24
2019-05-23T17:44:46.089Z,20.93
2019-05-23T17:50:14.877Z,20.57
2019-05-23T17:55:37.142Z,20.31
2019-05-23T18:00:59.425Z,19.89
2019-05-23T18:06:22.611Z,19.45
2019-05-23T18:11:44.208Z,18.99
2019-05-23T18:17:14.046Z,18.72
2019-05-23T18:22:42.029Z,18.50
2019-05-23T18:28:04.296Z,18.34
2019-05-23T18:33:27.823Z,17.77
2019-05-23T18:39:01.094Z,17.77
2019-05-23T18:44:22.941Z,17.37
2019-05-23T18:49:49.501Z,17.37
2019-05-23T18:55:14.734Z,17.20
2019-05-23T19:01:19.590Z,17.30
2019-05-23T19:06:42.745Z,17.36
2019-05-23T19:12:09.798Z,17.25
2019-05-23T19:17:37.706Z,17.21
2019-05-23T19:23:07.683Z,17.19
2019-05-23T19:28:41.323Z,17.18
2019-05-23T19:34:07.853Z,17.19
2019-05-23T19:39:41.154Z,17.20
2019-05-23T19:45:03.045Z,17.22
2019-05-23T19:50:26.510Z,17.24
2019-05-23T19:55:54.908Z,17.07
2019-05-23T20:01:36.068Z,17.01
2019-05-23T20:06:58.374Z,16.85
2019-05-23T20:12:20.849Z,16.84
2019-05-23T20:17:42.275Z,16.89
2019-05-23T20:23:04.085Z,16.78
2019-05-23T20:28:25.825Z,16.89
2019-05-23T20:33:48.170Z,17.04
2019-05-23T20:39:09.533Z,17.07
2019-05-23T20:44:31.359Z,17.09
2019-05-23T20:49:52.922Z,17.13
2019-05-23T20:55:14.666Z,17.12
2019-05-23T21:01:08.263Z,17.10
2019-05-23T21:06:30.029Z,17.01
2019-05-23T21:11:52.010Z,16.93
2019-05-23T21:17:13.460Z,16.92
2019-05-23T21:22:34.756Z,16.99
2019-05-23T21:27:56.529Z,17.07
2019-05-23T21:33:18.222Z,17.18
2019-05-23T21:38:39.450Z,17.19
2019-05-23T21:44:01.090Z,17.13
2019-05-23T21:49:22.718Z,17.08
2019-05-23T21:54:44.607Z,17.12
2019-05-23T22:00:47.688Z,17.10
2019-05-23T22:06:13.638Z,17.16
2019-05-23T22:11:35.568Z,17.14
2019-05-23T22:17:00.585Z,17.12
2019-05-23T22:22:25.165Z,17.19
2019-05-23T22:27:47.089Z,17.28
2019-05-23T22:33:09.066Z,17.12
2019-05-23T22:38:30.833Z,16.80
2019-05-23T22:43:52.136Z,16.61
2019-05-23T22:49:14.569Z,16.44
2019-05-23T22:54:36.325Z,16.47
2019-05-23T22:59:58.187Z,16.47
2019-05-23T23:05:20.123Z,16.52
2019-05-23T23:10:41.817Z,16.41
2019-05-23T23:16:03.636Z,16.48
2019-05-23T23:21:25.696Z,16.37
2019-05-23T23:26:47.245Z,16.22
2019-05-23T23:32:09.696Z,16.34
2019-05-23T23:37:31.460Z,16.21
2019-05-23T23:42:55.752Z,16.08
2019-05-23T23:48:35.339Z,16.30
2019-05-23T23:54:15.519Z,16.61
2019-05-23T23:59:36.942Z,16.41
